Terminal Aerodrome Forecast
Issued by NWS Grand Forks, ND

Home | Current Version | Previous Version | Text Only | Print | Product List | Glossary Off
Versions: 1 2 3 4 5 6 7 8 9 10 11 12 13 14 15 16 17 18 19 20 21

885
FTUS43 KFGF 231140
TAFGFK
TAF
KGFK 231140Z 2312/2412 16014KT P6SM BKN200
     FM231600 18009KT P6SM OVC080
     FM231800 17005KT P6SM -RA OVC045
     FM232300 30004KT P6SM OVC035
     FM240600 34008KT P6SM BKN025
     FM241000 36010KT P6SM BKN025
     FM241100 36010KT P6SM SCT025=

USA.gov is the U.S. government's official web portal to all federal, state and local government web resources and services.